createdAt,value
2019-03-30T00:00:40.682Z,15.57
2019-03-30T00:03:21.424Z,15.90
2019-03-30T00:06:02.066Z,16.83
2019-03-30T00:08:42.375Z,16.67
2019-03-30T00:11:23.124Z,15.67
2019-03-30T00:14:03.939Z,15.87
2019-03-30T00:16:44.476Z,17.70
2019-03-30T00:19:34.769Z,17.30
2019-03-30T00:22:07.597Z,16.90
2019-03-30T00:24:48.072Z,15.67
2019-03-30T00:27:28.621Z,16.53
2019-03-30T00:30:09.401Z,17.03
2019-03-30T00:32:49.840Z,18.47
2019-03-30T00:35:30.222Z,18.33
2019-03-30T00:38:10.864Z,17.93
2019-03-30T00:40:51.510Z,17.73
2019-03-30T00:43:32.111Z,19.60
2019-03-30T00:46:12.783Z,18.23
2019-03-30T00:48:53.457Z,19.33
2019-03-30T00:51:33.993Z,19.20
2019-03-30T00:54:14.709Z,19.17
2019-03-30T00:56:55.364Z,17.00
2019-03-30T00:59:36.072Z,18.07
2019-03-30T01:02:16.604Z,17.57
2019-03-30T01:04:57.084Z,17.33
2019-03-30T01:07:37.890Z,16.80
2019-03-30T01:10:18.444Z,17.30
2019-03-30T01:12:58.996Z,18.03
2019-03-30T01:15:39.555Z,15.67
2019-03-30T01:18:20.212Z,16.97
2019-03-30T01:21:01.324Z,15.57
2019-03-30T01:23:41.972Z,17.17
2019-03-30T01:26:22.678Z,17.17
2019-03-30T01:29:03.197Z,17.40
2019-03-30T01:31:43.806Z,17.27
2019-03-30T01:34:24.324Z,17.67
2019-03-30T01:37:04.884Z,17.30
2019-03-30T01:39:45.488Z,17.00
2019-03-30T01:42:26.192Z,16.57
2019-03-30T01:45:06.871Z,17.50
2019-03-30T01:47:47.615Z,16.70
2019-03-30T01:50:28.216Z,16.30
2019-03-30T01:53:09.105Z,16.93
2019-03-30T01:55:49.688Z,17.43
2019-03-30T01:58:30.179Z,18.23
2019-03-30T02:01:10.903Z,16.80
2019-03-30T02:03:51.716Z,16.63
2019-03-30T02:06:32.332Z,16.60
2019-03-30T02:09:13.020Z,18.10
2019-03-30T02:11:53.736Z,16.17
2019-03-30T02:14:34.529Z,17.00
2019-03-30T02:17:15.323Z,16.13
2019-03-30T02:19:55.985Z,17.00
2019-03-30T02:22:36.699Z,17.20
2019-03-30T02:25:17.400Z,18.20
2019-03-30T02:27:58.143Z,16.90
2019-03-30T02:30:30.842Z,17.07
2019-03-30T02:33:00.346Z,16.03
2019-03-30T02:35:29.904Z,15.00
2019-03-30T02:37:59.068Z,15.63
2019-03-30T02:40:28.370Z,15.97
2019-03-30T02:42:57.556Z,17.27
2019-03-30T02:45:26.736Z,16.67
2019-03-30T02:47:55.895Z,16.60
2019-03-30T02:50:25.100Z,16.67
2019-03-30T02:52:55.189Z,18.40
2019-03-30T02:55:24.504Z,16.60
2019-03-30T02:57:53.765Z,17.60
2019-03-30T03:00:23.044Z,17.00
2019-03-30T03:02:52.266Z,17.43
2019-03-30T03:05:21.495Z,17.50
2019-03-30T03:07:50.776Z,15.17
2019-03-30T03:10:20.441Z,17.43
2019-03-30T03:12:49.613Z,17.30
2019-03-30T03:15:18.788Z,18.37
2019-03-30T03:17:48.039Z,17.60
2019-03-30T03:20:17.319Z,16.93
2019-03-30T03:22:46.509Z,17.90
2019-03-30T03:25:15.894Z,17.80
2019-03-30T03:27:45.208Z,17.63
2019-03-30T03:30:14.608Z,18.47
2019-03-30T03:32:43.801Z,16.20
2019-03-30T03:35:13.334Z,17.80
2019-03-30T03:37:46.149Z,17.67
2019-03-30T03:40:13.732Z,17.20
2019-03-30T03:42:43.061Z,19.07
2019-03-30T03:45:12.741Z,17.70
2019-03-30T03:47:41.904Z,18.50
2019-03-30T03:50:25.484Z,19.00
2019-03-30T03:52:54.828Z,18.37
2019-03-30T03:55:24.182Z,18.67
2019-03-30T03:57:53.907Z,18.03
2019-03-30T04:00:23.265Z,18.63
2019-03-30T04:02:53.586Z,17.80
2019-03-30T04:05:24.501Z,19.13
2019-03-30T04:07:56.239Z,18.70
2019-03-30T04:10:28.592Z,19.97
2019-03-30T04:12:59.834Z,18.17
2019-03-30T04:15:29.073Z,18.60
2019-03-30T04:17:58.334Z,18.50
2019-03-30T04:20:27.614Z,19.07
2019-03-30T04:22:57.145Z,18.60
2019-03-30T04:25:26.870Z,19.00
2019-03-30T04:27:56.138Z,18.13
2019-03-30T04:30:25.409Z,18.73
2019-03-30T04:32:54.584Z,18.60
2019-03-30T04:35:23.778Z,19.40
2019-03-30T04:37:52.957Z,18.50
2019-03-30T04:40:22.150Z,19.97
2019-03-30T04:42:51.961Z,20.07
2019-03-30T04:45:21.159Z,20.13
2019-03-30T04:47:50.337Z,19.37
2019-03-30T04:50:19.537Z,19.20
2019-03-30T04:52:48.796Z,18.80
2019-03-30T04:55:18.017Z,19.77
2019-03-30T04:57:49.751Z,20.40
2019-03-30T05:00:19.298Z,19.20
2019-03-30T05:02:48.511Z,18.90
2019-03-30T05:05:17.744Z,20.33
2019-03-30T05:07:46.921Z,19.87
2019-03-30T05:10:16.192Z,20.03
2019-03-30T05:12:45.468Z,19.77
2019-03-30T05:15:14.772Z,20.20
2019-03-30T05:17:47.357Z,20.60
2019-03-30T05:20:15.104Z,19.83
2019-03-30T05:22:44.320Z,20.33
2019-03-30T05:25:13.652Z,21.13
2019-03-30T05:27:42.859Z,21.00
2019-03-30T05:30:12.529Z,20.93
2019-03-30T05:32:42.180Z,20.37
2019-03-30T05:35:11.603Z,21.27
2019-03-30T05:37:40.862Z,20.10
2019-03-30T05:40:10.386Z,20.40
2019-03-30T05:42:39.587Z,19.90
2019-03-30T05:45:09.088Z,20.70
2019-03-30T05:47:38.289Z,20.57
2019-03-30T05:50:08.317Z,20.77
2019-03-30T05:52:37.608Z,20.90
2019-03-30T05:55:06.973Z,21.40
2019-03-30T05:57:36.234Z,20.70
2019-03-30T06:00:06.240Z,20.60
2019-03-30T06:02:35.545Z,21.50
2019-03-30T06:05:05.124Z,21.30
2019-03-30T06:07:34.327Z,22.13
2019-03-30T06:10:04.568Z,22.97
2019-03-30T06:12:33.863Z,22.90
2019-03-30T06:15:03.036Z,21.50
2019-03-30T06:17:38.310Z,22.03
2019-03-30T06:20:08.261Z,22.20
2019-03-30T06:22:45.099Z,21.67
2019-03-30T06:25:21.827Z,23.40
2019-03-30T06:27:58.706Z,22.57
2019-03-30T06:30:43.957Z,22.60
2019-03-30T06:33:19.729Z,23.10
2019-03-30T06:35:53.075Z,21.83
2019-03-30T06:38:24.655Z,21.80
2019-03-30T06:40:56.209Z,23.50
2019-03-30T06:43:29.090Z,24.97
2019-03-30T06:46:04.329Z,25.77
2019-03-30T06:48:41.689Z,25.00
2019-03-30T06:51:16.620Z,24.60
2019-03-30T06:53:54.316Z,25.00
2019-03-30T06:56:28.968Z,25.73
2019-03-30T06:59:11.352Z,24.80
2019-03-30T07:01:55.169Z,23.50
2019-03-30T07:04:35.980Z,24.60
2019-03-30T07:07:13.858Z,24.57
2019-03-30T07:09:49.018Z,24.17
2019-03-30T07:12:23.318Z,25.50
2019-03-30T07:15:07.056Z,23.47
2019-03-30T07:17:47.928Z,24.60
2019-03-30T07:20:32.070Z,23.20
2019-03-30T07:23:12.320Z,24.27
2019-03-30T07:25:46.252Z,22.97
2019-03-30T07:28:20.878Z,24.17
2019-03-30T07:30:54.078Z,24.27
2019-03-30T07:36:09.921Z,21.43
2019-03-30T07:38:40.902Z,22.53
2019-03-30T07:41:14.914Z,21.27
2019-03-30T07:43:51.787Z,20.67
2019-03-30T07:46:23.025Z,21.13
2019-03-30T07:49:03.292Z,20.30
2019-03-30T07:51:35.562Z,21.20
2019-03-30T07:54:06.658Z,21.83
2019-03-30T07:56:39.267Z,21.30
2019-03-30T07:59:11.044Z,20.60
2019-03-30T08:01:43.095Z,20.73
2019-03-30T08:04:15.068Z,21.00
2019-03-30T08:06:52.238Z,20.30
2019-03-30T08:09:25.535Z,20.77
2019-03-30T08:11:55.663Z,19.47
2019-03-30T08:14:27.090Z,20.57
2019-03-30T08:17:00.895Z,20.80
2019-03-30T08:19:34.005Z,20.10
2019-03-30T08:22:05.330Z,20.30
2019-03-30T08:24:41.502Z,20.57
2019-03-30T08:27:14.188Z,19.70
2019-03-30T08:29:47.177Z,18.20
2019-03-30T08:32:28.449Z,18.60
2019-03-30T08:34:57.219Z,18.00
2019-03-30T08:37:27.975Z,18.97
2019-03-30T08:40:01.371Z,18.73
2019-03-30T08:42:41.935Z,17.23
2019-03-30T08:45:13.788Z,18.53
2019-03-30T08:47:42.955Z,17.83
2019-03-30T08:50:13.409Z,18.83
2019-03-30T08:52:42.728Z,18.80
2019-03-30T08:55:12.082Z,19.83
2019-03-30T08:57:41.275Z,20.47
2019-03-30T09:00:10.541Z,17.50
2019-03-30T09:02:39.743Z,18.67
2019-03-30T09:05:09.343Z,16.83
2019-03-30T09:07:38.539Z,12.70
2019-03-30T09:10:09.096Z,16.57
2019-03-30T09:12:38.581Z,16.47
2019-03-30T09:15:08.524Z,17.00
2019-03-30T09:17:37.823Z,15.93
2019-03-30T09:20:09.202Z,16.07
2019-03-30T09:22:38.501Z,15.77
2019-03-30T09:25:08.575Z,16.47
2019-03-30T09:27:37.796Z,17.00
2019-03-30T09:30:08.769Z,15.53
2019-03-30T09:32:38.020Z,15.63
2019-03-30T09:35:08.471Z,15.67
2019-03-30T09:37:37.800Z,17.00
2019-03-30T09:40:07.361Z,16.03
2019-03-30T09:42:36.818Z,17.07
2019-03-30T09:45:07.216Z,16.10
2019-03-30T09:47:36.521Z,16.53
2019-03-30T09:50:06.022Z,16.73
2019-03-30T09:52:35.252Z,16.47
2019-03-30T09:55:04.991Z,17.70
2019-03-30T09:57:34.196Z,17.43
2019-03-30T10:00:03.810Z,17.00
2019-03-30T10:02:33.371Z,17.30
2019-03-30T10:05:02.608Z,14.57
2019-03-30T10:07:31.791Z,14.73
2019-03-30T10:10:01.034Z,14.40
2019-03-30T10:12:30.284Z,15.40
2019-03-30T10:14:59.885Z,14.67
2019-03-30T10:17:29.402Z,15.30
2019-03-30T10:20:04.843Z,15.60
2019-03-30T10:22:29.483Z,14.27
2019-03-30T10:24:58.707Z,15.43
2019-03-30T10:27:28.287Z,15.70
2019-03-30T10:29:57.773Z,17.70
2019-03-30T10:32:26.939Z,15.77
2019-03-30T10:34:56.136Z,16.23
2019-03-30T10:37:25.335Z,16.37
2019-03-30T10:39:54.856Z,16.40
2019-03-30T10:42:24.031Z,17.27
2019-03-30T10:44:53.251Z,16.30
2019-03-30T10:47:22.637Z,16.80
2019-03-30T10:49:51.887Z,18.30
2019-03-30T10:52:21.063Z,17.17
2019-03-30T10:54:52.821Z,17.23
2019-03-30T10:57:21.546Z,17.73
2019-03-30T10:59:50.730Z,16.57
2019-03-30T11:02:19.980Z,17.37
2019-03-30T11:04:49.482Z,16.70
2019-03-30T11:07:18.710Z,16.03
2019-03-30T11:09:49.582Z,17.60
2019-03-30T11:12:18.939Z,16.40
2019-03-30T11:14:48.210Z,15.87
2019-03-30T11:17:19.362Z,14.80
2019-03-30T11:19:48.361Z,15.70
2019-03-30T11:22:17.658Z,14.33
2019-03-30T11:24:46.983Z,14.30
2019-03-30T11:27:16.258Z,14.43
2019-03-30T11:29:45.463Z,14.60
2019-03-30T11:32:14.959Z,13.50
2019-03-30T11:34:44.157Z,14.33
2019-03-30T11:37:13.358Z,12.77
2019-03-30T11:39:42.556Z,13.70
2019-03-30T11:42:11.756Z,12.97
2019-03-30T11:44:40.942Z,12.87
2019-03-30T11:47:10.153Z,13.60
2019-03-30T11:49:39.427Z,13.33
2019-03-30T11:52:08.656Z,13.10
2019-03-30T11:54:37.905Z,12.97
2019-03-30T11:57:07.191Z,12.53
2019-03-30T11:59:36.638Z,13.27
2019-03-30T12:02:06.440Z,12.80
2019-03-30T12:04:35.631Z,11.87
2019-03-30T12:07:05.001Z,11.83
2019-03-30T12:09:34.305Z,12.70
2019-03-30T12:12:03.737Z,13.60
2019-03-30T12:14:32.965Z,13.13
2019-03-30T12:17:02.460Z,13.40
2019-03-30T12:19:32.043Z,12.70
2019-03-30T12:22:01.239Z,13.20
2019-03-30T12:24:30.518Z,12.20
2019-03-30T12:26:59.735Z,13.43
2019-03-30T12:29:28.921Z,13.13
2019-03-30T12:31:58.200Z,12.43
2019-03-30T12:34:27.382Z,11.63
2019-03-30T12:36:56.632Z,12.40
2019-03-30T12:39:26.164Z,12.50
2019-03-30T12:41:55.365Z,12.97
2019-03-30T12:44:24.543Z,12.00
2019-03-30T12:46:53.737Z,11.40
2019-03-30T12:49:22.978Z,12.43
2019-03-30T12:51:52.467Z,12.80
2019-03-30T12:54:21.740Z,12.80
2019-03-30T12:56:50.941Z,11.77
2019-03-30T12:59:20.448Z,12.63
2019-03-30T13:01:49.652Z,12.70
2019-03-30T13:04:18.841Z,13.30
2019-03-30T13:06:48.116Z,12.83
2019-03-30T13:09:17.440Z,13.60
2019-03-30T13:11:47.256Z,12.93
2019-03-30T13:14:16.483Z,12.27
2019-03-30T13:16:45.748Z,13.00
2019-03-30T13:19:14.951Z,12.93
2019-03-30T13:21:52.491Z,12.70
2019-03-30T13:24:15.098Z,12.07
2019-03-30T13:26:44.618Z,12.40
2019-03-30T13:29:13.902Z,12.70
2019-03-30T13:31:43.405Z,12.87
2019-03-30T13:34:12.631Z,12.53
2019-03-30T13:36:43.260Z,11.70
2019-03-30T13:39:12.541Z,12.10
2019-03-30T13:41:42.059Z,11.90
2019-03-30T13:44:12.476Z,12.53
2019-03-30T13:46:41.665Z,12.13
2019-03-30T13:49:11.324Z,11.60
2019-03-30T13:51:40.865Z,11.70
2019-03-30T13:54:10.044Z,11.70
2019-03-30T13:56:39.298Z,11.33
2019-03-30T13:59:08.480Z,10.97
2019-03-30T14:01:37.676Z,11.10
2019-03-30T14:04:06.867Z,11.77
2019-03-30T14:06:36.077Z,10.73
2019-03-30T14:09:07.055Z,10.90
2019-03-30T14:11:36.252Z,10.50
2019-03-30T14:14:05.679Z,11.03
2019-03-30T14:16:34.963Z,11.07
2019-03-30T14:19:04.589Z,10.83
2019-03-30T14:21:33.877Z,11.27
2019-03-30T14:24:03.086Z,11.40
2019-03-30T14:26:32.260Z,11.60
2019-03-30T14:29:01.528Z,13.87
2019-03-30T14:31:30.723Z,14.33
2019-03-30T14:33:59.896Z,13.20
2019-03-30T14:36:29.185Z,12.90
2019-03-30T14:38:58.495Z,12.80
2019-03-30T14:41:27.757Z,13.70
2019-03-30T14:43:57.268Z,13.10
2019-03-30T14:46:26.497Z,12.83
2019-03-30T14:48:55.680Z,12.80
2019-03-30T14:51:24.864Z,12.73
2019-03-30T14:53:54.084Z,13.63
2019-03-30T14:56:23.389Z,13.43
2019-03-30T14:58:52.607Z,13.70
2019-03-30T15:01:21.899Z,13.40
2019-03-30T15:03:51.486Z,13.83
2019-03-30T15:06:20.666Z,13.53
2019-03-30T15:08:49.827Z,13.57
2019-03-30T15:11:19.264Z,13.03
2019-03-30T15:13:48.449Z,13.73
2019-03-30T15:16:36.682Z,14.30
2019-03-30T15:19:24.928Z,14.10
2019-03-30T15:22:13.236Z,14.83
2019-03-30T15:25:01.445Z,13.50
2019-03-30T15:27:49.626Z,15.13
2019-03-30T15:30:37.855Z,14.53
2019-03-30T15:33:26.101Z,14.83
2019-03-30T15:36:14.485Z,15.23
2019-03-30T15:39:02.787Z,14.70
2019-03-30T15:41:51.057Z,14.90
2019-03-30T15:44:39.239Z,15.40
2019-03-30T15:47:27.489Z,15.47
2019-03-30T15:50:08.145Z,16.37
2019-03-30T15:52:48.717Z,15.43
2019-03-30T15:55:29.555Z,15.40
2019-03-30T16:00:52.512Z,16.10
2019-03-30T16:06:15.319Z,16.53
2019-03-30T16:11:38.391Z,15.87
2019-03-30T16:14:19.479Z,15.97
2019-03-30T16:17:00.231Z,15.77
2019-03-30T16:22:22.798Z,16.80
2019-03-30T16:25:03.538Z,16.70
2019-03-30T16:27:44.481Z,18.13
2019-03-30T16:30:24.944Z,17.43
2019-03-30T16:33:05.531Z,17.57
2019-03-30T16:35:45.840Z,17.60
2019-03-30T16:38:26.438Z,16.33
2019-03-30T16:41:07.275Z,17.03
2019-03-30T16:43:47.611Z,17.33
2019-03-30T16:46:28.354Z,18.83
2019-03-30T16:49:08.684Z,18.73
2019-03-30T16:51:51.788Z,17.93
2019-03-30T16:54:32.102Z,19.10
2019-03-30T16:57:12.618Z,18.30
2019-03-30T16:59:53.335Z,19.20
2019-03-30T17:02:33.953Z,19.07
2019-03-30T17:05:14.902Z,19.93
2019-03-30T17:07:55.712Z,19.90
2019-03-30T17:10:40.017Z,20.17
2019-03-30T17:13:19.125Z,20.50
2019-03-30T17:15:59.745Z,18.80
2019-03-30T17:18:40.169Z,20.00
2019-03-30T17:21:21.041Z,16.70
2019-03-30T17:24:01.363Z,17.40
2019-03-30T17:26:42.143Z,16.77
2019-03-30T17:29:23.292Z,17.70
2019-03-30T17:32:04.088Z,17.90
2019-03-30T17:34:44.562Z,18.30
2019-03-30T17:37:25.505Z,17.77
2019-03-30T17:40:05.800Z,19.33
2019-03-30T17:42:46.466Z,18.37
2019-03-30T17:45:27.219Z,18.23
2019-03-30T17:48:07.975Z,19.73
2019-03-30T17:53:30.987Z,18.37
2019-03-30T17:56:11.554Z,19.10
2019-03-30T17:58:52.265Z,19.23
2019-03-30T18:01:32.890Z,18.40
2019-03-30T18:04:13.762Z,19.20
2019-03-30T18:06:54.595Z,19.03
2019-03-30T18:09:35.538Z,19.33
2019-03-30T18:12:16.576Z,18.63
2019-03-30T18:14:57.616Z,18.83
2019-03-30T18:17:38.253Z,19.00
2019-03-30T18:20:18.880Z,19.70
2019-03-30T18:22:59.663Z,18.73
2019-03-30T18:25:40.371Z,21.20
2019-03-30T18:28:27.359Z,18.57
2019-03-30T18:31:04.091Z,20.77
2019-03-30T18:33:44.582Z,19.47
2019-03-30T18:36:25.523Z,20.27
2019-03-30T18:39:09.906Z,19.53
2019-03-30T18:41:49.003Z,19.03
2019-03-30T18:44:29.823Z,19.93
2019-03-30T18:47:10.648Z,19.50
2019-03-30T18:49:51.317Z,19.20
2019-03-30T18:52:31.949Z,19.63
2019-03-30T18:55:12.744Z,20.23
2019-03-30T18:57:53.414Z,19.50
2019-03-30T19:00:34.029Z,19.90
2019-03-30T19:03:14.757Z,20.63
2019-03-30T19:05:55.610Z,20.57
2019-03-30T19:08:36.211Z,19.40
2019-03-30T19:11:17.022Z,19.73
2019-03-30T19:13:57.832Z,20.23
2019-03-30T19:16:38.461Z,21.60
2019-03-30T19:19:19.333Z,20.70
2019-03-30T19:22:00.183Z,20.67
2019-03-30T19:24:40.883Z,21.70
2019-03-30T19:27:21.765Z,21.53
2019-03-30T19:30:02.345Z,21.73
2019-03-30T19:32:42.689Z,20.43
2019-03-30T19:35:23.332Z,21.07
2019-03-30T19:38:04.363Z,20.37
2019-03-30T19:40:44.749Z,19.47
2019-03-30T19:43:25.264Z,19.50
2019-03-30T19:46:05.904Z,18.00
2019-03-30T19:48:46.184Z,19.17
2019-03-30T19:51:26.732Z,19.57
2019-03-30T19:54:07.393Z,18.43
2019-03-30T19:56:48.095Z,18.90
2019-03-30T19:59:28.758Z,18.67
2019-03-30T20:02:09.831Z,17.83
2019-03-30T20:04:50.233Z,17.77
2019-03-30T20:07:30.976Z,17.83
2019-03-30T20:10:11.561Z,18.50
2019-03-30T20:12:52.140Z,17.80
2019-03-30T20:15:33.066Z,18.60
2019-03-30T20:18:13.572Z,17.90
2019-03-30T20:20:54.289Z,19.40
2019-03-30T20:23:34.743Z,17.97
2019-03-30T20:26:15.519Z,18.67
2019-03-30T20:28:56.098Z,18.20
2019-03-30T20:31:36.773Z,17.80
2019-03-30T20:34:17.564Z,19.07
2019-03-30T20:36:58.301Z,19.20
2019-03-30T20:39:38.851Z,19.57
2019-03-30T20:42:19.146Z,20.17
2019-03-30T20:44:59.736Z,20.23
2019-03-30T20:47:40.389Z,22.33
2019-03-30T20:50:21.416Z,22.67
2019-03-30T20:53:02.084Z,25.80
2019-03-30T20:55:42.785Z,27.47
2019-03-30T21:01:05.446Z,29.00
2019-03-30T21:03:45.952Z,31.00
2019-03-30T21:06:26.406Z,32.07
2019-03-30T21:09:06.925Z,33.97
2019-03-30T21:11:47.314Z,33.27
2019-03-30T21:14:28.134Z,35.17
2019-03-30T21:17:09.161Z,35.67
2019-03-30T21:19:49.790Z,34.03
2019-03-30T21:22:30.679Z,36.00
2019-03-30T21:25:11.413Z,37.30
2019-03-30T21:27:52.084Z,36.23
2019-03-30T21:30:32.945Z,37.33
2019-03-30T21:33:14.049Z,37.70
2019-03-30T21:35:54.931Z,39.37
2019-03-30T21:41:18.816Z,39.60
2019-03-30T21:43:59.465Z,42.43
2019-03-30T21:46:40.370Z,42.20
2019-03-30T21:49:21.612Z,41.90
2019-03-30T21:52:02.330Z,42.17
2019-03-30T21:54:43.164Z,45.23
2019-03-30T21:57:24.219Z,44.00
2019-03-30T22:00:10.467Z,44.40
2019-03-30T22:02:46.971Z,45.47
2019-03-30T22:05:27.839Z,44.30
2019-03-30T22:08:08.528Z,45.60
2019-03-30T22:10:49.288Z,43.80
2019-03-30T22:13:29.961Z,44.40
2019-03-30T22:22:08.653Z,44.30
2019-03-30T22:24:49.198Z,45.43
2019-03-30T22:27:29.881Z,42.93
2019-03-30T22:30:24.173Z,42.97
2019-03-30T22:32:53.473Z,42.93
2019-03-30T22:35:34.084Z,43.10
2019-03-30T22:38:14.960Z,43.03
2019-03-30T22:40:55.522Z,43.90
2019-03-30T22:43:36.268Z,44.97
2019-03-30T22:46:16.940Z,43.93
2019-03-30T22:48:57.645Z,43.73
2019-03-30T22:51:38.290Z,44.00
2019-03-30T22:54:19.100Z,44.30
2019-03-30T22:57:00.380Z,44.53
2019-03-30T22:59:41.144Z,46.20
2019-03-30T23:02:21.759Z,44.43
2019-03-30T23:05:02.666Z,45.20
2019-03-30T23:07:43.348Z,46.00
2019-03-30T23:10:24.041Z,46.73
2019-03-30T23:13:04.712Z,46.40
2019-03-30T23:18:27.592Z,46.27
2019-03-30T23:21:08.049Z,47.83
2019-03-30T23:23:48.641Z,47.20
2019-03-30T23:26:29.044Z,49.40
2019-03-30T23:29:09.955Z,47.50
2019-03-30T23:31:50.408Z,47.50
2019-03-30T23:34:31.156Z,48.60
2019-03-30T23:37:11.901Z,47.60
2019-03-30T23:39:53.100Z,48.50
2019-03-30T23:42:34.107Z,47.40
2019-03-30T23:45:14.523Z,47.77
2019-03-30T23:50:37.224Z,48.93
2019-03-30T23:53:17.657Z,47.20
2019-03-30T23:55:58.437Z,49.20
2019-03-30T23:58:39.438Z,49.97
